createdAt,value
2023-03-26T00:02:20.895Z,8.56
2023-03-26T00:07:27.256Z,8.59
2023-03-26T00:12:32.473Z,8.49
2023-03-26T00:17:40.694Z,8.38
2023-03-26T00:22:48.269Z,8.48
2023-03-26T00:27:54.259Z,8.45
2023-03-26T00:33:02.292Z,8.62
2023-03-26T00:38:08.347Z,8.56
2023-03-26T00:43:19.039Z,8.56
2023-03-26T00:48:43.922Z,8.57
2023-03-26T00:53:52.462Z,8.48
2023-03-26T00:59:00.367Z,8.53
2023-03-26T01:04:30.980Z,8.65
2023-03-26T01:09:43.065Z,8.67
2023-03-26T01:14:51.039Z,8.70
2023-03-26T01:20:06.543Z,8.63
2023-03-26T01:25:14.813Z,8.60
2023-03-26T01:30:28.381Z,8.50
2023-03-26T01:35:43.903Z,8.26
2023-03-26T01:40:58.368Z,8.22
2023-03-26T01:46:07.119Z,7.94
2023-03-26T01:51:14.080Z,7.95
2023-03-26T01:56:29.359Z,7.76
2023-03-26T02:01:45.028Z,7.85
2023-03-26T02:06:58.774Z,7.72
2023-03-26T02:12:09.760Z,7.80
2023-03-26T02:17:15.001Z,7.81
2023-03-26T02:22:21.404Z,7.66
2023-03-26T02:27:29.943Z,7.69
2023-03-26T02:32:36.227Z,7.69
2023-03-26T02:37:42.339Z,7.66
2023-03-26T02:42:55.824Z,7.73
2023-03-26T02:48:02.158Z,7.80
2023-03-26T02:53:30.068Z,7.76
2023-03-26T02:59:14.050Z,7.84
2023-03-26T03:04:22.801Z,7.82
2023-03-26T03:09:28.154Z,7.83
2023-03-26T03:15:03.925Z,7.85
2023-03-26T03:20:12.409Z,7.81
2023-03-26T03:25:18.110Z,7.80
2023-03-26T03:30:30.174Z,7.82
2023-03-26T03:35:49.865Z,7.91
2023-03-26T03:40:57.964Z,7.92
2023-03-26T03:46:08.727Z,7.84
2023-03-26T03:51:22.437Z,7.83
2023-03-26T03:56:47.714Z,7.65
2023-03-26T04:02:14.340Z,7.60
2023-03-26T04:07:33.979Z,7.56
2023-03-26T04:12:45.117Z,7.56
2023-03-26T04:17:57.224Z,7.48
2023-03-26T04:23:03.621Z,7.52
2023-03-26T04:28:12.157Z,7.56
2023-03-26T04:33:34.675Z,7.57
2023-03-26T04:38:44.754Z,7.74
2023-03-26T04:43:51.307Z,7.62
2023-03-26T04:49:07.386Z,7.70
2023-03-26T04:54:15.715Z,7.74
2023-03-26T04:59:41.609Z,7.84
2023-03-26T05:04:53.980Z,7.89
2023-03-26T05:10:03.591Z,7.91
2023-03-26T05:15:33.409Z,8.12
2023-03-26T05:20:49.344Z,7.93
2023-03-26T05:25:54.838Z,8.07
2023-03-26T05:31:02.900Z,8.12
2023-03-26T05:36:17.396Z,8.07
2023-03-26T05:41:26.594Z,8.02
2023-03-26T05:46:32.120Z,8.09
2023-03-26T05:51:40.730Z,8.22
2023-03-26T05:57:09.026Z,8.17
2023-03-26T06:02:35.141Z,8.31
2023-03-26T06:08:06.359Z,8.32
2023-03-26T06:13:16.470Z,8.40
2023-03-26T06:18:23.351Z,8.31
2023-03-26T06:23:52.685Z,8.49
2023-03-26T06:29:16.961Z,8.48
2023-03-26T06:34:33.757Z,8.60
2023-03-26T06:39:41.537Z,8.55
2023-03-26T06:45:01.619Z,9.34
2023-03-26T06:50:15.683Z,9.04
2023-03-26T06:55:48.804Z,10.44
2023-03-26T07:01:17.021Z,13.37
2023-03-26T07:06:54.284Z,14.14
2023-03-26T07:12:20.754Z,12.20
2023-03-26T07:17:41.089Z,11.63
2023-03-26T07:23:02.126Z,11.16
2023-03-26T07:28:25.817Z,10.76
2023-03-26T07:34:02.428Z,10.57
2023-03-26T07:39:40.796Z,10.62
2023-03-26T07:45:06.583Z,11.34
2023-03-26T07:50:33.571Z,11.26
2023-03-26T07:55:50.174Z,11.90
2023-03-26T08:01:28.799Z,11.15
2023-03-26T08:06:38.553Z,11.72
2023-03-26T08:12:21.375Z,10.96
2023-03-26T08:17:34.692Z,11.07
2023-03-26T08:22:46.088Z,11.11
2023-03-26T08:28:04.213Z,11.00
2023-03-26T08:33:19.610Z,10.52
2023-03-26T08:38:25.075Z,10.23
2023-03-26T08:43:56.712Z,10.45
2023-03-26T08:49:37.514Z,10.41
2023-03-26T08:55:18.101Z,10.30
2023-03-26T09:00:41.567Z,10.59
2023-03-26T09:06:26.674Z,10.37
2023-03-26T09:12:04.271Z,10.31
2023-03-26T09:17:32.785Z,10.66
2023-03-26T09:23:07.761Z,10.63
2023-03-26T09:28:48.254Z,10.23
2023-03-26T09:34:02.023Z,10.46
2023-03-26T09:39:17.920Z,10.32
2023-03-26T09:44:52.761Z,10.26
2023-03-26T09:50:22.955Z,10.75
2023-03-26T09:55:53.282Z,11.06
2023-03-26T10:01:09.304Z,10.79
2023-03-26T10:06:37.878Z,11.03
2023-03-26T10:12:07.930Z,11.63
2023-03-26T10:17:32.189Z,12.82
2023-03-26T10:22:50.683Z,12.24
2023-03-26T10:28:05.560Z,11.60
2023-03-26T10:33:25.233Z,11.75
2023-03-26T10:38:54.765Z,12.30
2023-03-26T10:44:22.087Z,12.77
2023-03-26T10:49:45.527Z,12.89
2023-03-26T10:54:59.952Z,13.17
2023-03-26T11:00:17.178Z,12.93
2023-03-26T11:05:44.877Z,13.17
2023-03-26T11:10:59.500Z,13.77
2023-03-26T11:16:07.841Z,14.16
2023-03-26T11:21:21.632Z,13.14
2023-03-26T11:26:39.340Z,13.65
2023-03-26T11:31:58.442Z,13.31
2023-03-26T11:37:07.975Z,12.87
2023-03-26T11:42:19.500Z,13.24
2023-03-26T11:47:30.091Z,12.46
2023-03-26T11:52:36.268Z,12.38
2023-03-26T11:57:50.038Z,12.20
2023-03-26T12:03:00.165Z,12.93
2023-03-26T12:08:24.056Z,12.90
2023-03-26T12:13:38.367Z,13.01
2023-03-26T12:18:46.346Z,12.91
2023-03-26T12:24:01.045Z,12.87
2023-03-26T12:29:14.439Z,12.94
2023-03-26T12:34:21.336Z,12.94
2023-03-26T12:40:08.794Z,12.92
2023-03-26T12:45:10.007Z,12.93
2023-03-26T12:50:18.464Z,12.91
2023-03-26T12:55:46.902Z,12.79
2023-03-26T13:01:04.279Z,12.76
2023-03-26T13:06:26.802Z,12.74
2023-03-26T13:11:38.850Z,12.93
2023-03-26T13:16:53.822Z,12.76
2023-03-26T13:22:12.575Z,12.76
2023-03-26T13:27:37.935Z,12.87
2023-03-26T13:32:59.763Z,12.87
2023-03-26T13:38:14.666Z,12.64
2023-03-26T13:43:35.641Z,13.00
2023-03-26T13:48:51.437Z,12.87
2023-03-26T13:54:01.998Z,12.74
2023-03-26T13:59:14.075Z,12.82
2023-03-26T14:04:26.671Z,13.03
2023-03-26T14:09:45.190Z,12.80
2023-03-26T14:14:55.562Z,13.12
2023-03-26T14:20:37.679Z,13.04
2023-03-26T14:26:04.339Z,13.38
2023-03-26T14:31:23.935Z,12.81
2023-03-26T14:36:59.307Z,11.82
2023-03-26T14:42:15.769Z,11.88
2023-03-26T14:47:24.767Z,11.77
2023-03-26T14:52:40.532Z,11.45
2023-03-26T14:58:13.928Z,11.28
2023-03-26T15:03:51.315Z,11.10
2023-03-26T15:09:33.100Z,10.68
2023-03-26T15:15:20.138Z,10.56
2023-03-26T15:20:47.749Z,10.46
2023-03-26T15:26:25.633Z,10.36
2023-03-26T15:32:00.380Z,10.60
2023-03-26T15:37:46.675Z,10.30
2023-03-26T15:43:02.883Z,9.81
2023-03-26T15:48:35.003Z,10.26
2023-03-26T15:53:51.730Z,10.39
2023-03-26T15:59:05.407Z,10.24
2023-03-26T16:04:27.064Z,10.27
2023-03-26T16:09:55.731Z,9.93
2023-03-26T16:15:23.130Z,10.05
2023-03-26T16:20:33.788Z,10.08
2023-03-26T16:25:57.617Z,10.09
2023-03-26T16:31:39.254Z,9.55
2023-03-26T16:36:51.579Z,9.96
2023-03-26T16:42:06.859Z,9.68
2023-03-26T16:47:22.675Z,9.34
2023-03-26T16:52:47.145Z,8.99
2023-03-26T16:57:59.329Z,9.11
2023-03-26T17:03:29.778Z,9.03
2023-03-26T17:08:48.188Z,9.36
2023-03-26T17:14:07.604Z,9.07
2023-03-26T17:19:29.085Z,8.76
2023-03-26T17:24:45.833Z,9.28
2023-03-26T17:31:04.870Z,9.15
2023-03-26T17:36:33.038Z,8.98
2023-03-26T17:42:14.819Z,9.27
2023-03-26T17:47:27.900Z,8.81
2023-03-26T17:52:48.180Z,9.08
2023-03-26T17:58:00.269Z,8.85
2023-03-26T18:03:18.669Z,8.73
2023-03-26T18:08:53.948Z,9.31
2023-03-26T18:14:29.144Z,8.88
2023-03-26T18:19:50.374Z,9.06
2023-03-26T18:25:00.803Z,8.70
2023-03-26T18:30:19.529Z,8.62
2023-03-26T18:35:32.016Z,8.82
2023-03-26T18:40:45.580Z,8.45
2023-03-26T18:45:53.655Z,8.45
2023-03-26T18:51:05.780Z,8.46
2023-03-26T18:56:32.337Z,8.70
2023-03-26T19:01:47.078Z,8.70
2023-03-26T19:06:57.242Z,8.60
2023-03-26T19:12:09.548Z,8.47
2023-03-26T19:17:18.352Z,8.35
2023-03-26T19:22:27.916Z,8.51
2023-03-26T19:27:33.903Z,8.47
2023-03-26T19:32:40.920Z,8.56
2023-03-26T19:37:57.255Z,8.31
2023-03-26T19:43:04.428Z,8.37
2023-03-26T19:48:15.583Z,8.60
2023-03-26T19:53:30.452Z,8.68
2023-03-26T19:58:36.373Z,8.37
2023-03-26T20:03:44.440Z,8.16
2023-03-26T20:08:53.495Z,8.06
2023-03-26T20:13:58.641Z,8.12
2023-03-26T20:19:05.249Z,8.00
2023-03-26T20:24:17.917Z,7.95
2023-03-26T20:29:23.766Z,7.85
2023-03-26T20:34:28.847Z,7.78
2023-03-26T20:39:36.423Z,7.67
2023-03-26T20:44:42.178Z,7.75
2023-03-26T20:49:47.241Z,7.89
2023-03-26T20:54:54.946Z,7.81
2023-03-26T21:00:00.162Z,7.71
2023-03-26T21:05:05.892Z,7.63
2023-03-26T21:10:15.851Z,7.72
2023-03-26T21:15:23.733Z,7.76
2023-03-26T21:20:32.916Z,7.88
2023-03-26T21:25:50.774Z,8.17
2023-03-26T21:30:57.212Z,8.13
2023-03-26T21:36:04.662Z,7.71
2023-03-26T21:41:26.745Z,7.84
2023-03-26T21:46:32.897Z,8.22
2023-03-26T21:51:38.912Z,8.42
2023-03-26T21:56:53.002Z,8.25
2023-03-26T22:02:05.986Z,8.42
2023-03-26T22:07:18.212Z,8.47
2023-03-26T22:12:27.929Z,8.41
2023-03-26T22:17:32.965Z,8.21
2023-03-26T22:22:38.011Z,8.47
2023-03-26T22:27:46.296Z,8.32
2023-03-26T22:32:51.941Z,8.50
2023-03-26T22:38:01.021Z,8.24
2023-03-26T22:43:09.268Z,8.35
2023-03-26T22:48:14.563Z,8.12
2023-03-26T22:53:19.497Z,8.26
2023-03-26T22:58:27.478Z,8.11
2023-03-26T23:03:35.223Z,8.05
2023-03-26T23:08:41.569Z,8.21
2023-03-26T23:13:53.042Z,8.25
2023-03-26T23:18:58.125Z,7.96
2023-03-26T23:24:04.744Z,7.81
2023-03-26T23:29:12.508Z,7.61
2023-03-26T23:34:21.145Z,7.60
2023-03-26T23:39:26.778Z,7.43
2023-03-26T23:44:34.494Z,7.67
2023-03-26T23:49:40.067Z,7.73
2023-03-26T23:54:45.802Z,8.01
2023-03-26T23:59:53.798Z,7.95
